createdAt,value
2018-03-14T00:00:45.766Z,90.96
2018-03-14T00:01:45.744Z,91.5
2018-03-14T00:02:45.786Z,91.29
2018-03-14T00:03:45.747Z,91.11
2018-03-14T00:04:45.749Z,91.14
2018-03-14T00:05:45.757Z,92.35
2018-03-14T00:06:45.765Z,91.55
2018-03-14T00:07:45.780Z,91.54
2018-03-14T00:08:45.808Z,91.7
2018-03-14T00:09:45.747Z,91.31
2018-03-14T00:10:45.791Z,92.1
2018-03-14T00:11:45.783Z,91.12
2018-03-14T00:12:45.791Z,91.05
2018-03-14T00:13:45.801Z,91.05
2018-03-14T00:14:45.798Z,91.19
2018-03-14T00:15:45.800Z,91.11
2018-03-14T00:16:45.791Z,90.39
2018-03-14T00:17:45.802Z,90.7
2018-03-14T00:18:45.826Z,91.13
2018-03-14T00:19:45.801Z,90.72
2018-03-14T00:20:45.807Z,91.4
2018-03-14T00:21:45.819Z,90.77
2018-03-14T00:22:45.833Z,91.22
2018-03-14T00:23:45.840Z,91.55
2018-03-14T00:24:45.813Z,91.36
2018-03-14T00:25:45.895Z,90.83
2018-03-14T00:26:45.825Z,90.81
2018-03-14T00:27:45.811Z,90.78
2018-03-14T00:28:45.823Z,91.08
2018-03-14T00:29:45.844Z,91.56
2018-03-14T00:30:45.892Z,91.42
2018-03-14T00:31:45.837Z,91.2
2018-03-14T00:32:45.856Z,90.6
2018-03-14T00:33:45.854Z,91.03
2018-03-14T00:34:45.854Z,90.73
2018-03-14T00:35:45.913Z,90.98
2018-03-14T00:36:45.915Z,90.8
2018-03-14T00:37:45.855Z,90.11
2018-03-14T00:38:45.908Z,90.36
2018-03-14T00:39:46.297Z,91.01
2018-03-14T00:40:45.928Z,90.72
2018-03-14T00:41:45.917Z,90.66
2018-03-14T00:42:45.918Z,90.87
2018-03-14T00:43:45.948Z,90.85
2018-03-14T00:44:47.133Z,91.01
2018-03-14T00:45:45.938Z,91.43
2018-03-14T00:46:45.943Z,90.63
2018-03-14T00:47:45.932Z,91.53
2018-03-14T00:48:45.930Z,91.96
2018-03-14T00:49:45.930Z,91.88
2018-03-14T00:50:46.157Z,91.71
2018-03-14T00:51:45.924Z,91.17
2018-03-14T00:52:45.923Z,92.07
2018-03-14T00:53:45.935Z,91.75
2018-03-14T00:54:45.916Z,91.83
2018-03-14T00:55:45.970Z,92
2018-03-14T00:56:45.940Z,91.55
2018-03-14T00:57:46.042Z,91.13
2018-03-14T00:58:45.887Z,90.57
2018-03-14T00:59:45.892Z,90.44
2018-03-14T01:00:45.929Z,91.62
2018-03-14T01:01:45.907Z,91.81
2018-03-14T01:02:45.908Z,91.03
2018-03-14T01:03:45.915Z,91.06
2018-03-14T01:04:45.921Z,90.97
2018-03-14T01:05:45.929Z,90.64
2018-03-14T01:06:45.952Z,90.56
2018-03-14T01:07:45.942Z,90.47
2018-03-14T01:08:45.942Z,91.26
2018-03-14T01:09:45.950Z,91.47
2018-03-14T01:10:45.957Z,91.42
2018-03-14T01:11:45.980Z,91.41
2018-03-14T01:12:45.955Z,91.28
2018-03-14T01:13:45.959Z,91.28
2018-03-14T01:14:45.965Z,91.61
2018-03-14T01:15:45.970Z,91.78
2018-03-14T01:16:45.964Z,91.64
2018-03-14T01:17:45.986Z,91.14
2018-03-14T01:18:45.971Z,90.92
2018-03-14T01:19:45.985Z,90.74
2018-03-14T01:20:45.994Z,91.39
2018-03-14T01:21:45.982Z,91.23
2018-03-14T01:22:45.982Z,90.95
2018-03-14T01:23:45.996Z,91.52
2018-03-14T01:24:45.994Z,91.67
2018-03-14T01:25:45.996Z,91.84
2018-03-14T01:26:45.999Z,91.97
2018-03-14T01:27:45.999Z,92.1
2018-03-14T01:28:46.032Z,91.92
2018-03-14T01:29:46.006Z,91.25
2018-03-14T01:30:46.008Z,91.34
2018-03-14T01:31:46.015Z,91.95
2018-03-14T01:32:46.022Z,92.21
2018-03-14T01:33:46.045Z,91.98
2018-03-14T01:34:46.024Z,91.86
2018-03-14T01:35:46.035Z,92.04
2018-03-14T01:36:46.038Z,92.47
2018-03-14T01:37:46.039Z,92.13
2018-03-14T01:38:46.045Z,92.42
2018-03-14T01:39:46.067Z,92.57
2018-03-14T01:40:46.047Z,92.71
2018-03-14T01:41:46.055Z,93.24
2018-03-14T01:42:46.062Z,93.08
2018-03-14T01:43:46.062Z,92.43
2018-03-14T01:44:46.081Z,92.36
2018-03-14T01:45:46.058Z,92.48
2018-03-14T01:46:46.069Z,92.86
2018-03-14T01:47:46.072Z,92.54
2018-03-14T01:48:46.085Z,93.08
2018-03-14T01:49:46.077Z,92.5
2018-03-14T01:50:46.107Z,92.32
2018-03-14T01:51:46.080Z,91.83
2018-03-14T01:52:46.086Z,92.32
2018-03-14T01:53:46.082Z,92.11
2018-03-14T01:54:46.081Z,91.64
2018-03-14T01:55:46.107Z,91.33
2018-03-14T01:56:46.090Z,92.42
2018-03-14T01:57:47.071Z,91.77
2018-03-14T01:58:46.095Z,91.85
2018-03-14T01:59:46.107Z,91.73
2018-03-14T02:00:46.109Z,91.72
2018-03-14T02:01:46.111Z,91.6
2018-03-14T02:02:46.118Z,91.46
2018-03-14T02:03:46.123Z,91.64
2018-03-14T02:04:46.125Z,92.2
2018-03-14T02:05:46.128Z,91.69
2018-03-14T02:06:46.134Z,91.28
2018-03-14T02:07:46.133Z,91.13
2018-03-14T02:08:46.150Z,91.18
2018-03-14T02:09:46.144Z,91.56
2018-03-14T02:10:46.144Z,91.6
2018-03-14T02:11:46.160Z,92.04
2018-03-14T02:12:46.147Z,91.99
2018-03-14T02:13:46.157Z,92.36
2018-03-14T02:14:46.166Z,92.22
2018-03-14T02:15:46.157Z,91.56
2018-03-14T02:16:46.155Z,91.76
2018-03-14T02:17:46.158Z,92.16
2018-03-14T02:18:46.162Z,91.3
2018-03-14T02:19:46.164Z,91.58
2018-03-14T02:20:46.163Z,91.66
2018-03-14T02:21:46.174Z,91.23
2018-03-14T02:22:46.163Z,91.11
2018-03-14T02:23:46.164Z,91.15
2018-03-14T02:24:46.170Z,91.74
2018-03-14T02:25:46.225Z,91.71
2018-03-14T02:26:46.173Z,91.65
2018-03-14T02:27:46.176Z,91.66
2018-03-14T02:28:46.173Z,91.09
2018-03-14T02:29:46.186Z,91.59
2018-03-14T02:30:46.349Z,91.03
2018-03-14T02:31:46.188Z,91.1
2018-03-14T02:32:46.200Z,91.37
2018-03-14T02:33:46.197Z,91.17
2018-03-14T02:34:46.205Z,91.08
2018-03-14T02:35:46.216Z,91.55
2018-03-14T02:36:46.210Z,91.57
2018-03-14T02:37:46.212Z,91.1
2018-03-14T02:38:46.219Z,91.64
2018-03-14T02:39:46.220Z,91.99
2018-03-14T02:40:46.250Z,91.71
2018-03-14T02:41:46.221Z,91.48
2018-03-14T02:42:46.231Z,91.8
2018-03-14T02:43:46.228Z,91.79
2018-03-14T02:44:46.239Z,92.17
2018-03-14T02:45:46.239Z,91.29
2018-03-14T02:46:46.419Z,91.63
2018-03-14T02:47:46.247Z,91.45
2018-03-14T02:48:46.256Z,91.44
2018-03-14T02:49:46.259Z,91.36
2018-03-14T02:50:46.266Z,91.62
2018-03-14T02:51:46.288Z,92.09
2018-03-14T02:52:46.277Z,92.17
2018-03-14T02:53:46.274Z,92.4
2018-03-14T02:54:46.282Z,92.55
2018-03-14T02:55:46.284Z,92.3
2018-03-14T02:56:46.287Z,91.96
2018-03-14T02:57:46.290Z,91.95
2018-03-14T02:58:46.314Z,91.95
2018-03-14T02:59:46.298Z,92.08
2018-03-14T03:00:46.309Z,91.74
2018-03-14T03:01:46.308Z,91.71
2018-03-14T03:02:46.311Z,91.34
2018-03-14T03:03:46.332Z,91.4
2018-03-14T03:04:46.313Z,91.45
2018-03-14T03:05:46.318Z,91.54
2018-03-14T03:06:46.335Z,91.19
2018-03-14T03:07:46.322Z,91.44
2018-03-14T03:08:46.351Z,91.23
2018-03-14T03:09:46.328Z,91.38
2018-03-14T03:10:46.332Z,91.23
2018-03-14T03:11:46.324Z,91.32
2018-03-14T03:12:46.370Z,91.38
2018-03-14T03:13:46.366Z,91.5
2018-03-14T03:14:46.341Z,91.08
2018-03-14T03:15:46.342Z,91.3
2018-03-14T03:16:46.344Z,91.05
2018-03-14T03:17:46.350Z,91.15
2018-03-14T03:18:46.358Z,91.73
2018-03-14T03:19:46.364Z,91.26
2018-03-14T03:20:46.360Z,91.44
2018-03-14T03:21:46.367Z,91.51
2018-03-14T03:22:46.370Z,91.24
2018-03-14T03:23:46.418Z,91.48
2018-03-14T03:24:46.370Z,91.41
2018-03-14T03:25:46.381Z,91.81
2018-03-14T03:26:46.385Z,91.56
2018-03-14T03:27:46.409Z,91.16
2018-03-14T03:28:46.420Z,91.45
2018-03-14T03:29:46.400Z,91.35
2018-03-14T03:30:46.398Z,91.52
2018-03-14T03:31:46.413Z,91.72
2018-03-14T03:32:46.411Z,91.48
2018-03-14T03:33:46.403Z,91.37
2018-03-14T03:34:46.408Z,91.26
2018-03-14T03:35:46.413Z,90.87
2018-03-14T03:36:46.413Z,91.55
2018-03-14T03:37:46.413Z,91.28
2018-03-14T03:38:46.673Z,91.43
2018-03-14T03:39:46.422Z,91.2
2018-03-14T03:40:46.429Z,91.28
2018-03-14T03:41:46.436Z,91.62
2018-03-14T03:42:46.441Z,91.96
2018-03-14T03:43:46.460Z,90.96
2018-03-14T03:44:46.443Z,90.85
2018-03-14T03:45:46.442Z,90.86
2018-03-14T03:46:46.465Z,91.21
2018-03-14T03:47:46.441Z,90.97
2018-03-14T03:48:46.450Z,90.56
2018-03-14T03:49:46.458Z,91.26
2018-03-14T03:50:46.460Z,91.09
2018-03-14T03:51:46.485Z,91.18
2018-03-14T03:52:46.470Z,90.44
2018-03-14T03:53:46.468Z,89.8
2018-03-14T03:54:46.475Z,89.73
2018-03-14T03:55:46.477Z,90.06
2018-03-14T03:56:46.489Z,90.17
2018-03-14T03:57:46.496Z,90.17
2018-03-14T03:58:46.495Z,89.91
2018-03-14T03:59:46.494Z,89.51
2018-03-14T04:00:46.503Z,89.73
2018-03-14T04:01:46.515Z,89.86
2018-03-14T04:02:46.514Z,90.29
2018-03-14T04:03:46.520Z,90.59
2018-03-14T04:04:46.521Z,90.71
2018-03-14T04:05:46.518Z,90.18
2018-03-14T04:06:46.526Z,90.07
2018-03-14T04:07:46.530Z,89.34
2018-03-14T04:08:46.535Z,90.22
2018-03-14T04:09:46.529Z,90.09
2018-03-14T04:10:46.533Z,89.68
2018-03-14T04:11:46.817Z,89.42
2018-03-14T04:12:46.540Z,89.56
2018-03-14T04:13:46.548Z,89.74
2018-03-14T04:14:46.551Z,90.24
2018-03-14T04:15:46.558Z,90.08
2018-03-14T04:16:46.595Z,89.79
2018-03-14T04:17:46.554Z,90.12
2018-03-14T04:18:46.567Z,89.59
2018-03-14T04:19:46.559Z,89.84
2018-03-14T04:20:46.577Z,90.11
2018-03-14T04:21:46.570Z,90.72
2018-03-14T04:22:46.579Z,89.95
2018-03-14T04:23:46.592Z,90.2
2018-03-14T04:24:46.611Z,90.1
2018-03-14T04:25:46.581Z,90.71
2018-03-14T04:26:46.579Z,90.66
2018-03-14T04:27:46.583Z,88.86
2018-03-14T04:28:46.586Z,89.23
2018-03-14T04:29:46.578Z,88.08
2018-03-14T04:30:46.580Z,88.64
2018-03-14T04:31:46.579Z,88.36
2018-03-14T04:32:46.582Z,89
2018-03-14T04:33:46.585Z,88.54
2018-03-14T04:34:46.586Z,88.54
2018-03-14T04:35:46.594Z,88.7
2018-03-14T04:36:46.597Z,88.12
2018-03-14T04:37:46.607Z,88.31
2018-03-14T04:38:46.608Z,88.59
2018-03-14T04:39:46.607Z,88.81
2018-03-14T04:40:46.610Z,89.29
2018-03-14T04:41:46.614Z,89.1
2018-03-14T04:42:46.619Z,89.33
2018-03-14T04:43:46.616Z,89.68
2018-03-14T04:44:46.624Z,89.78
2018-03-14T04:45:46.630Z,89.77
2018-03-14T04:46:46.854Z,89.5
2018-03-14T04:47:46.644Z,89.66
2018-03-14T04:48:46.650Z,89.6
2018-03-14T04:49:46.658Z,90.09
2018-03-14T04:50:46.654Z,89.83
2018-03-14T04:51:46.680Z,89.85
2018-03-14T04:52:46.664Z,89.78
2018-03-14T04:53:46.673Z,89.81
2018-03-14T04:54:46.671Z,89.54
2018-03-14T04:55:46.661Z,89.72
2018-03-14T04:56:46.671Z,89.61
2018-03-14T04:57:46.672Z,89.4
2018-03-14T04:58:46.673Z,89.35
2018-03-14T04:59:46.679Z,89.52
2018-03-14T05:00:46.678Z,90
2018-03-14T05:01:46.689Z,89.63
2018-03-14T05:02:46.697Z,89.54
2018-03-14T05:03:46.707Z,89.63
2018-03-14T05:04:46.681Z,89.8
2018-03-14T05:05:46.677Z,89.63
2018-03-14T05:06:46.682Z,90.04
2018-03-14T05:07:46.705Z,89.88
2018-03-14T05:08:46.682Z,89.73
2018-03-14T05:09:46.682Z,89.92
2018-03-14T05:10:46.684Z,89.41
2018-03-14T05:11:46.690Z,89.88
2018-03-14T05:12:46.694Z,89.87
2018-03-14T05:13:46.687Z,89.67
2018-03-14T05:14:46.689Z,89.99
2018-03-14T05:15:46.714Z,89.84
2018-03-14T05:16:46.705Z,90.04
2018-03-14T05:17:46.703Z,89.49
2018-03-14T05:18:46.717Z,90.22
2018-03-14T05:19:46.749Z,89.91
2018-03-14T05:20:46.725Z,89.98
2018-03-14T05:21:46.736Z,90.17
2018-03-14T05:22:46.728Z,90.3
2018-03-14T05:23:46.726Z,90.21
2018-03-14T05:24:46.726Z,89.73
2018-03-14T05:25:46.725Z,89.84
2018-03-14T05:26:46.740Z,90
2018-03-14T05:27:46.732Z,89.98
2018-03-14T05:28:46.735Z,89.85
2018-03-14T05:29:46.740Z,90.26
2018-03-14T05:30:46.747Z,90.42
2018-03-14T05:31:46.750Z,90.04
2018-03-14T05:32:46.746Z,89.95
2018-03-14T05:33:46.755Z,90.32
2018-03-14T05:34:46.918Z,90.28
2018-03-14T05:35:46.760Z,90.13
2018-03-14T05:36:46.762Z,90.09
2018-03-14T05:37:46.773Z,90.37
2018-03-14T05:38:46.782Z,90.43
2018-03-14T05:39:46.801Z,90.35
2018-03-14T05:40:46.778Z,90.38
2018-03-14T05:41:46.781Z,89.96
2018-03-14T05:42:46.787Z,90.03
2018-03-14T05:43:46.786Z,90.22
2018-03-14T05:44:46.795Z,90.58
2018-03-14T05:45:46.806Z,90.05
2018-03-14T05:46:46.802Z,90.63
2018-03-14T05:47:46.826Z,91
2018-03-14T05:48:46.816Z,90.65
2018-03-14T05:49:46.823Z,90.55
2018-03-14T05:50:46.832Z,90.41
2018-03-14T05:51:46.832Z,90.81
2018-03-14T05:52:46.841Z,90.92
2018-03-14T05:53:46.890Z,90.8
2018-03-14T05:54:46.843Z,90.57
2018-03-14T05:55:46.846Z,90.62
2018-03-14T05:56:46.850Z,91.06
2018-03-14T05:57:46.851Z,91.21
2018-03-14T05:58:46.849Z,91.1
2018-03-14T05:59:46.864Z,90.92
2018-03-14T06:00:46.863Z,90.92
2018-03-14T06:01:46.852Z,90.81
2018-03-14T06:02:46.871Z,90.77
2018-03-14T06:03:46.861Z,91.36
2018-03-14T06:04:46.860Z,91.25
2018-03-14T06:05:46.861Z,90.94
2018-03-14T06:06:46.867Z,91.42
2018-03-14T06:07:46.894Z,91.52
2018-03-14T06:08:46.879Z,91.61
2018-03-14T06:09:46.889Z,91.22
2018-03-14T06:10:46.887Z,91.07
2018-03-14T06:11:46.896Z,91.38
2018-03-14T06:12:46.896Z,91.33
2018-03-14T06:13:46.903Z,91.72
2018-03-14T06:14:46.962Z,91.49
2018-03-14T06:15:46.912Z,91.21
2018-03-14T06:16:46.912Z,91.69
2018-03-14T06:17:46.925Z,91.65
2018-03-14T06:18:46.923Z,91.38
2018-03-14T06:19:46.948Z,91.31
2018-03-14T06:20:46.933Z,91.17
2018-03-14T06:21:46.929Z,91.5
2018-03-14T06:22:46.935Z,91.72
2018-03-14T06:23:46.941Z,91.57
2018-03-14T06:24:46.944Z,91.81
2018-03-14T06:25:46.940Z,91.33
2018-03-14T06:26:46.964Z,91.9
2018-03-14T06:27:46.972Z,91.9
2018-03-14T06:28:46.975Z,91.77
2018-03-14T06:29:46.982Z,91.43
2018-03-14T06:30:47.000Z,91.66
2018-03-14T06:31:46.969Z,91.38
2018-03-14T06:32:46.978Z,91.54
2018-03-14T06:33:46.994Z,91.16
2018-03-14T06:34:46.991Z,91.03
2018-03-14T06:35:47.025Z,91.34
2018-03-14T06:36:46.998Z,91.03
2018-03-14T06:37:47.008Z,91.63
2018-03-14T06:38:47.023Z,91.51
2018-03-14T06:39:47.014Z,91.36
2018-03-14T06:40:47.033Z,91.76
2018-03-14T06:41:47.010Z,91.75
2018-03-14T06:42:47.022Z,91.79
2018-03-14T06:43:47.021Z,91.68
2018-03-14T06:44:47.017Z,92.02
2018-03-14T06:45:47.046Z,91.8
2018-03-14T06:46:47.032Z,91.71
2018-03-14T06:47:47.032Z,91.75
2018-03-14T06:48:47.059Z,91.11
2018-03-14T06:49:47.037Z,91.83
2018-03-14T06:50:47.038Z,91.39
2018-03-14T06:51:47.041Z,91.53
2018-03-14T06:52:47.047Z,91.48
2018-03-14T06:53:47.081Z,90.51
2018-03-14T06:54:47.063Z,90.45
2018-03-14T06:55:47.058Z,91.18
2018-03-14T06:56:47.074Z,91.02
2018-03-14T06:57:47.091Z,91.72
2018-03-14T06:58:47.073Z,91.93
2018-03-14T06:59:47.068Z,91.75
2018-03-14T07:00:47.069Z,91.21
2018-03-14T07:01:47.073Z,91.28
2018-03-14T07:02:47.076Z,91.94
2018-03-14T07:03:47.088Z,91.6
2018-03-14T07:04:47.088Z,91.78
2018-03-14T07:05:47.094Z,92.14
2018-03-14T07:06:47.104Z,92.29
2018-03-14T07:07:47.097Z,92.19
2018-03-14T07:08:47.106Z,91.76
2018-03-14T07:09:47.106Z,91.58
2018-03-14T07:10:47.110Z,92.1
2018-03-14T07:11:47.108Z,92.17
2018-03-14T07:12:47.114Z,91.69
2018-03-14T07:13:47.133Z,92.02
2018-03-14T07:14:47.137Z,91.78
2018-03-14T07:15:47.124Z,91.51
2018-03-14T07:16:47.146Z,91.41
2018-03-14T07:17:47.130Z,91.8
2018-03-14T07:18:47.135Z,91.76
2018-03-14T07:19:47.154Z,91.94
2018-03-14T07:20:47.133Z,91.96
2018-03-14T07:21:47.136Z,91.5
2018-03-14T07:22:47.155Z,91.83
2018-03-14T07:23:47.148Z,92.08
2018-03-14T07:24:47.173Z,91.82
2018-03-14T07:25:47.154Z,92.16
2018-03-14T07:26:47.160Z,91.63
2018-03-14T07:27:47.185Z,91.34
2018-03-14T07:28:47.163Z,90.96
2018-03-14T07:29:47.167Z,90.75
2018-03-14T07:30:47.175Z,91.24
2018-03-14T07:31:47.187Z,91.21
2018-03-14T07:32:47.210Z,90.75
2018-03-14T07:33:47.205Z,90.4
2018-03-14T07:34:47.201Z,90.36
2018-03-14T07:35:47.200Z,90.51
2018-03-14T07:36:47.200Z,91.33
2018-03-14T07:37:47.255Z,90.99
2018-03-14T07:38:47.207Z,91.4
2018-03-14T07:39:47.208Z,91.4
2018-03-14T07:40:47.210Z,91.32
2018-03-14T07:41:47.209Z,90.95
2018-03-14T07:42:47.232Z,91.06
2018-03-14T07:43:47.213Z,90.77
2018-03-14T07:44:47.214Z,90.93
2018-03-14T07:45:47.216Z,91.24
2018-03-14T07:46:47.215Z,91.04
2018-03-14T07:47:47.242Z,90.74
2018-03-14T07:48:47.257Z,90.41
2018-03-14T07:49:47.234Z,90.32
2018-03-14T07:50:47.235Z,90.37
2018-03-14T07:51:47.240Z,90.54
2018-03-14T07:52:47.251Z,90.45
2018-03-14T07:53:47.252Z,89.98
2018-03-14T07:54:47.249Z,90.13
2018-03-14T07:55:47.251Z,89.87
2018-03-14T07:56:47.260Z,89.68
2018-03-14T07:57:47.269Z,89.3
2018-03-14T07:58:47.291Z,89.12
2018-03-14T07:59:47.268Z,89.27
2018-03-14T08:00:47.270Z,88.92
2018-03-14T08:01:47.271Z,89.6
2018-03-14T08:02:47.285Z,90.12
2018-03-14T08:03:47.306Z,90.27
2018-03-14T08:04:47.288Z,90.27
2018-03-14T08:05:47.309Z,90.34
2018-03-14T08:06:47.345Z,90.56
2018-03-14T08:07:47.284Z,90.37
2018-03-14T08:08:47.333Z,88.85
2018-03-14T08:09:47.288Z,88.9
2018-03-14T08:10:47.297Z,89.59
2018-03-14T08:11:47.298Z,89.46
2018-03-14T08:12:47.300Z,89.63
2018-03-14T08:13:47.523Z,89.9
2018-03-14T08:14:47.308Z,89.98
2018-03-14T08:15:47.325Z,89.9
2018-03-14T08:16:47.323Z,89.09
2018-03-14T08:17:47.317Z,88.62
2018-03-14T08:18:47.325Z,88.45
2018-03-14T08:19:47.326Z,88.14
2018-03-14T08:20:47.329Z,88.15
2018-03-14T08:21:47.345Z,87.67
2018-03-14T08:22:47.338Z,87.54
2018-03-14T08:23:47.346Z,87.3
2018-03-14T08:24:47.341Z,86.62
2018-03-14T08:25:47.342Z,86.17
2018-03-14T08:26:47.351Z,86.76
2018-03-14T08:27:47.401Z,86.36
2018-03-14T08:28:47.381Z,86.59
2018-03-14T08:29:47.351Z,86.83
2018-03-14T08:30:47.362Z,86.77
2018-03-14T08:31:47.350Z,87.08
2018-03-14T08:32:47.351Z,86.68
2018-03-14T08:33:47.362Z,86.18
2018-03-14T08:34:47.362Z,86.37
2018-03-14T08:35:47.361Z,86.03
2018-03-14T08:36:47.365Z,86.58
2018-03-14T08:37:47.380Z,86.34
2018-03-14T08:38:47.402Z,86.68
2018-03-14T08:39:47.380Z,85.59
2018-03-14T08:40:47.381Z,85.78
2018-03-14T08:41:47.384Z,86.04
2018-03-14T08:42:47.387Z,86.53
2018-03-14T08:43:47.406Z,86.17
2018-03-14T08:44:47.378Z,85.25
2018-03-14T08:45:47.396Z,85.19
2018-03-14T08:46:47.430Z,85.85
2018-03-14T08:47:47.401Z,85.48
2018-03-14T08:48:47.405Z,85.72
2018-03-14T08:49:47.421Z,85.42
2018-03-14T08:50:47.405Z,84.63
2018-03-14T08:51:47.416Z,84.12
2018-03-14T08:52:47.415Z,82.73
2018-03-14T08:53:47.416Z,84.38
2018-03-14T08:54:47.434Z,84.86
2018-03-14T08:55:47.478Z,83.96
2018-03-14T08:56:47.438Z,84.54
2018-03-14T08:57:47.433Z,84.36
2018-03-14T08:58:47.445Z,84.48
2018-03-14T08:59:47.436Z,84.23
2018-03-14T09:00:47.433Z,83.34
2018-03-14T09:01:47.445Z,82.94
2018-03-14T09:02:47.447Z,80.77
2018-03-14T09:03:47.446Z,80.77
2018-03-14T09:04:47.473Z,78.76
2018-03-14T09:05:47.456Z,80.66
2018-03-14T09:06:47.454Z,78.07
2018-03-14T09:07:47.460Z,77.76
2018-03-14T09:08:47.453Z,77.61
2018-03-14T09:09:47.481Z,76.35
2018-03-14T09:10:47.479Z,76.89
2018-03-14T09:11:47.491Z,76.32
2018-03-14T09:12:47.471Z,77.07
2018-03-14T09:13:47.492Z,76.58
2018-03-14T09:14:47.471Z,76.25
2018-03-14T09:15:47.474Z,77.55
2018-03-14T09:16:47.479Z,75.05
2018-03-14T09:17:47.481Z,75.75
2018-03-14T09:18:47.478Z,77.46
2018-03-14T09:19:47.488Z,77.83
2018-03-14T09:20:47.484Z,76.97
2018-03-14T09:21:47.487Z,76.98
2018-03-14T09:22:47.498Z,78.18
2018-03-14T09:23:47.495Z,78.53
2018-03-14T09:24:47.522Z,77.44
2018-03-14T09:25:47.508Z,78.32
2018-03-14T09:26:47.516Z,77.41
2018-03-14T09:27:47.517Z,75.46
2018-03-14T09:28:47.530Z,75.53
2018-03-14T09:29:47.546Z,72.64
2018-03-14T09:30:47.531Z,73.79
2018-03-14T09:31:47.538Z,73.95
2018-03-14T09:32:47.546Z,74.66
2018-03-14T09:33:47.547Z,73.04
2018-03-14T09:34:47.553Z,71.98
2018-03-14T09:35:47.554Z,71.36
2018-03-14T09:36:47.568Z,71.12
2018-03-14T09:37:47.592Z,69.69
2018-03-14T09:38:47.572Z,71.54
2018-03-14T09:39:47.588Z,71.74
2018-03-14T09:40:47.589Z,70.33
2018-03-14T09:41:47.582Z,72.44
2018-03-14T09:42:47.584Z,71.79
2018-03-14T09:43:47.588Z,71.28
2018-03-14T09:44:47.615Z,72.62
2018-03-14T09:45:47.588Z,72.21
2018-03-14T09:46:47.594Z,73.61
2018-03-14T09:47:47.596Z,74.45
2018-03-14T09:48:47.601Z,70.18
2018-03-14T09:49:47.623Z,70.01
2018-03-14T09:50:47.608Z,70.82
2018-03-14T09:51:47.641Z,72.75
2018-03-14T09:52:47.619Z,72.8
2018-03-14T09:53:47.627Z,73.5
2018-03-14T09:54:47.643Z,72.45
2018-03-14T09:55:47.626Z,70.24
2018-03-14T09:56:47.633Z,68.56
2018-03-14T09:57:47.637Z,70.17
2018-03-14T09:58:47.649Z,70.54
2018-03-14T09:59:47.645Z,71.39
2018-03-14T10:00:47.706Z,69.17
2018-03-14T10:01:47.645Z,68.15
2018-03-14T10:02:47.654Z,69.25
2018-03-14T10:03:47.648Z,69.53
2018-03-14T10:04:47.658Z,69.84
2018-03-14T10:05:47.662Z,68.66
2018-03-14T10:06:47.662Z,69.98
2018-03-14T10:07:47.672Z,69.93
2018-03-14T10:08:47.680Z,68.43
2018-03-14T10:09:47.674Z,68.46
2018-03-14T10:10:47.697Z,69.09
2018-03-14T10:11:47.679Z,68.79
2018-03-14T10:12:47.687Z,68.61
2018-03-14T10:13:47.681Z,68.8
2018-03-14T10:14:47.701Z,69.58
2018-03-14T10:15:47.685Z,67.92
2018-03-14T10:16:47.868Z,67.75
2018-03-14T10:17:47.684Z,68.43
2018-03-14T10:18:47.701Z,67.52
2018-03-14T10:19:47.691Z,65.86
2018-03-14T10:20:47.694Z,64.99
2018-03-14T10:21:47.730Z,65.25
2018-03-14T10:22:47.699Z,64.97
2018-03-14T10:23:47.704Z,65.25
2018-03-14T10:24:47.705Z,65.33
2018-03-14T10:25:47.874Z,65.75
2018-03-14T10:26:47.739Z,67.17
2018-03-14T10:27:47.726Z,68.19
2018-03-14T10:28:47.722Z,68.13
2018-03-14T10:29:47.729Z,68.71
2018-03-14T10:30:47.724Z,69.01
2018-03-14T10:31:47.749Z,67.45
2018-03-14T10:32:47.734Z,66.82
2018-03-14T10:33:47.732Z,67.73
2018-03-14T10:34:47.731Z,69.18
2018-03-14T10:35:47.743Z,66.93
2018-03-14T10:36:47.828Z,65.48
2018-03-14T10:37:47.750Z,65.28
2018-03-14T10:38:47.750Z,66.96
2018-03-14T10:39:47.751Z,66.61
2018-03-14T10:40:47.768Z,64.4
2018-03-14T10:41:47.759Z,63.95
2018-03-14T10:42:47.759Z,64.34
2018-03-14T10:43:47.786Z,64.02
2018-03-14T10:44:47.773Z,64.26
2018-03-14T10:45:47.772Z,63.78
2018-03-14T10:46:47.773Z,64.54
2018-03-14T10:47:47.775Z,64.02
2018-03-14T10:48:47.859Z,63.45
2018-03-14T10:49:47.786Z,65.2
2018-03-14T10:50:47.777Z,63.86
2018-03-14T10:51:47.785Z,65.11
2018-03-14T10:52:47.788Z,63.45
2018-03-14T10:53:47.786Z,65.1
2018-03-14T10:54:47.795Z,66.35
2018-03-14T10:55:47.796Z,65.92
2018-03-14T10:56:47.794Z,63.59
2018-03-14T10:57:47.842Z,63.46
2018-03-14T10:58:49.138Z,65.33
2018-03-14T10:59:47.858Z,64.3
2018-03-14T11:00:47.917Z,64.54
2018-03-14T11:01:47.851Z,65.35
2018-03-14T11:02:47.921Z,64.91
2018-03-14T11:03:47.932Z,64.61
2018-03-14T11:04:48.084Z,63.82
2018-03-14T11:05:47.869Z,65.06
2018-03-14T11:06:47.872Z,65.42
2018-03-14T11:07:47.892Z,61.99
2018-03-14T11:08:47.850Z,60.73
2018-03-14T11:09:47.873Z,61.35
2018-03-14T11:10:47.845Z,60.27
2018-03-14T11:11:47.851Z,61.63
2018-03-14T11:12:47.846Z,59.65
2018-03-14T11:13:47.849Z,61.52
2018-03-14T11:14:47.856Z,60.74
2018-03-14T11:15:47.854Z,60.51
2018-03-14T11:16:47.859Z,59.16
2018-03-14T11:17:47.866Z,59.31
2018-03-14T11:18:47.886Z,60.44
2018-03-14T11:19:47.889Z,62.11
2018-03-14T11:20:47.887Z,62.78
2018-03-14T11:21:47.886Z,63.1
2018-03-14T11:22:47.886Z,62.15
2018-03-14T11:23:47.892Z,63.03
2018-03-14T11:24:47.891Z,63.45
2018-03-14T11:25:47.921Z,63.35
2018-03-14T11:26:47.918Z,62.13
2018-03-14T11:27:47.932Z,63.79
2018-03-14T11:28:47.916Z,63.87
2018-03-14T11:29:47.917Z,63.4
2018-03-14T11:30:47.935Z,63.4
2018-03-14T11:31:47.929Z,64.24
2018-03-14T11:32:47.934Z,63
2018-03-14T11:33:47.942Z,63.18
2018-03-14T11:34:47.943Z,62.96
2018-03-14T11:35:47.947Z,63.23
2018-03-14T11:36:47.944Z,62.98
2018-03-14T11:37:47.951Z,62.86
2018-03-14T11:38:47.942Z,63.67
2018-03-14T11:39:47.949Z,63.95
2018-03-14T11:40:47.981Z,63.72
2018-03-14T11:41:47.954Z,62
2018-03-14T11:42:47.958Z,62.86
2018-03-14T11:43:47.965Z,64.2
2018-03-14T11:44:47.968Z,63.35
2018-03-14T11:45:47.973Z,62.92
2018-03-14T11:46:47.978Z,62.06
2018-03-14T11:47:47.983Z,62.72
2018-03-14T11:48:47.987Z,62.91
2018-03-14T11:49:47.987Z,62.22
2018-03-14T11:50:47.993Z,60.64
2018-03-14T11:51:47.996Z,61.73
2018-03-14T11:52:47.998Z,59.88
2018-03-14T11:53:48.001Z,59.92
2018-03-14T11:54:48.007Z,60.99
2018-03-14T11:55:48.004Z,61.98
2018-03-14T11:56:48.012Z,62.35
2018-03-14T11:57:48.035Z,61.45
2018-03-14T11:58:48.019Z,59.22
2018-03-14T11:59:48.019Z,57.61
2018-03-14T12:00:48.025Z,57.9
2018-03-14T12:01:48.024Z,57.18
2018-03-14T12:02:48.198Z,57.13
2018-03-14T12:03:48.038Z,57.43
2018-03-14T12:04:48.042Z,59.5
2018-03-14T12:05:48.046Z,59.34
2018-03-14T12:06:48.044Z,59.93
2018-03-14T12:07:48.065Z,61
2018-03-14T12:08:48.054Z,59.44
2018-03-14T12:09:48.052Z,59.69
2018-03-14T12:10:48.054Z,57.79
2018-03-14T12:11:52.387Z,57.08
2018-03-14T12:12:48.053Z,58.23
2018-03-14T12:13:48.057Z,57.55
2018-03-14T12:14:48.060Z,57.52
2018-03-14T12:15:48.064Z,59.25
2018-03-14T12:16:48.065Z,59.02
2018-03-14T12:17:48.069Z,59.25
2018-03-14T12:18:49.337Z,59.11
2018-03-14T12:19:48.070Z,58.38
2018-03-14T12:20:48.077Z,59.06
2018-03-14T12:21:48.073Z,58.75
2018-03-14T12:22:48.080Z,57.66
2018-03-14T12:23:49.309Z,58.44
2018-03-14T12:24:48.121Z,58.62
2018-03-14T12:25:48.080Z,58.79
2018-03-14T12:26:48.079Z,58.77
2018-03-14T12:27:49.121Z,58.53
2018-03-14T12:28:48.082Z,58.23
2018-03-14T12:29:48.085Z,58.62
2018-03-14T12:30:48.152Z,56.45
2018-03-14T12:31:49.328Z,57.39
2018-03-14T12:32:48.129Z,58.43
2018-03-14T12:33:48.145Z,59.58
2018-03-14T12:34:48.291Z,59.73
2018-03-14T12:35:48.136Z,57.66
2018-03-14T12:36:48.131Z,59.02
2018-03-14T12:37:48.136Z,58.43
2018-03-14T12:38:48.131Z,59.08
2018-03-14T12:39:49.272Z,59.58
2018-03-14T12:40:49.157Z,58.9
2018-03-14T12:41:48.437Z,58.98
2018-03-14T12:42:49.713Z,58.66
2018-03-14T12:43:49.815Z,59.4
2018-03-14T12:44:49.301Z,59.22
2018-03-14T12:45:49.246Z,58.63
2018-03-14T12:46:48.498Z,58.35
2018-03-14T12:47:48.402Z,58.93
2018-03-14T12:48:49.496Z,57.75
2018-03-14T12:49:51.225Z,58.04
2018-03-14T12:50:50.015Z,58.12
2018-03-14T12:51:48.759Z,57.27
2018-03-14T12:52:48.457Z,57.44
2018-03-14T12:53:52.309Z,58.4
2018-03-14T12:54:48.982Z,58.12
2018-03-14T12:55:48.463Z,58.05